Time;durP1;ratioP1;P1;durP2;ratioP2;P2;SDS_P1;SDS_P2;PMS_P1;PMS_P2;Temp;Humidity;BMP_temperature;BMP_pressure;BME280_temperature;BME280_humidity;BME280_pressure;Samples;Min_cycle;Max_cycle;Signal;HPM_P1;HPM_P2
2023/08/15 00:02:08;;;;;;;14.13;9.20;;;17.80;89.00;;;;;;5017374;28;20049;-67
2023/08/15 00:04:35;;;;;;;13.30;9.83;;;17.80;88.90;;;;;;5027208;28;20411;-67
2023/08/15 00:07:04;;;;;;;15.30;9.33;;;17.80;89.10;;;;;;5031525;28;20041;-67
2023/08/15 00:09:31;;;;;;;14.60;9.63;;;17.80;89.30;;;;;;5005001;28;20358;-68
2023/08/15 00:11:56;;;;;;;12.17;9.60;;;17.80;89.20;;;;;;5013856;28;20283;-68
2023/08/15 00:14:22;;;;;;;14.30;9.57;;;17.80;88.70;;;;;;5027756;28;20290;-68
2023/08/15 00:16:48;;;;;;;11.23;9.40;;;17.80;88.80;;;;;;5031056;28;20057;-68
2023/08/15 00:19:13;;;;;;;18.77;9.30;;;17.80;88.40;;;;;;5028191;28;20072;-67
2023/08/15 00:21:39;;;;;;;12.63;9.03;;;17.80;88.80;;;;;;5029994;28;20029;-67
2023/08/15 00:24:05;;;;;;;13.30;9.43;;;17.80;89.00;;;;;;5027728;28;20041;-67
2023/08/15 00:26:31;;;;;;;11.37;9.10;;;17.70;88.70;;;;;;5026505;28;20033;-67
2023/08/15 00:28:58;;;;;;;10.87;8.27;;;17.70;88.80;;;;;;5020621;28;20497;-67
2023/08/15 00:31:24;;;;;;;11.17;9.20;;;17.70;89.00;;;;;;5026183;28;20053;-67
2023/08/15 00:33:49;;;;;;;15.00;9.60;;;17.60;88.70;;;;;;5030106;28;20613;-67
2023/08/15 00:36:15;;;;;;;13.07;9.50;;;17.60;88.80;;;;;;5003299;28;20644;-67
2023/08/15 00:38:41;;;;;;;15.23;8.90;;;17.60;89.10;;;;;;5017916;28;20033;-67
2023/08/15 00:41:07;;;;;;;11.73;9.33;;;17.60;89.00;;;;;;5023424;28;20098;-68
2023/08/15 00:43:33;;;;;;;13.43;8.70;;;17.50;89.00;;;;;;5026493;28;20087;-68
2023/08/15 00:46:01;;;;;;;14.40;8.80;;;17.50;89.10;;;;;;5025041;28;20040;-68
2023/08/15 00:48:29;;;;;;;10.73;8.50;;;17.50;89.30;;;;;;5027944;28;20048;-66
2023/08/15 00:50:58;;;;;;;12.90;7.97;;;17.50;89.20;;;;;;5029905;28;20315;-66
2023/08/15 00:53:24;;;;;;;13.90;8.97;;;17.40;89.10;;;;;;5028141;28;20807;-66
2023/08/15 00:55:54;;;;;;;12.93;8.70;;;17.40;89.10;;;;;;5029049;28;20690;-66
2023/08/15 00:58:19;;;;;;;14.50;8.43;;;17.40;89.10;;;;;;5025761;28;20318;-66
2023/08/15 01:00:45;;;;;;;12.40;7.90;;;17.40;89.30;;;;;;5022224;28;20728;-66
2023/08/15 01:03:12;;;;;;;9.63;7.87;;;17.50;89.20;;;;;;5011231;28;20053;-66
2023/08/15 01:05:39;;;;;;;14.33;8.43;;;17.50;89.30;;;;;;5027605;28;20307;-67
2023/08/15 01:08:06;;;;;;;12.13;8.03;;;17.40;89.10;;;;;;5023827;28;20292;-66
2023/08/15 01:10:32;;;;;;;10.20;7.07;;;17.50;89.30;;;;;;5023627;28;20322;-66
2023/08/15 01:13:04;;;;;;;13.27;7.53;;;17.40;89.30;;;;;;5025801;28;20441;-66
2023/08/15 01:15:32;;;;;;;9.67;7.33;;;17.50;89.30;;;;;;5007791;28;20513;-67
2023/08/15 01:18:20;;;;;;;10.10;7.40;;;17.50;89.30;;;;;;5013020;28;20302;-67
2023/08/15 01:20:47;;;;;;;12.83;8.33;;;17.50;89.30;;;;;;5023596;28;20320;-68
2023/08/15 01:23:15;;;;;;;13.17;8.03;;;17.50;90.80;;;;;;5025287;28;20311;-68
2023/08/15 01:25:42;;;;;;;14.67;9.30;;;17.50;91.00;;;;;;5028786;28;20315;-66
2023/08/15 01:28:15;;;;;;;15.50;9.97;;;17.50;91.40;;;;;;5029402;28;21152;-66
2023/08/15 01:30:46;;;;;;;15.87;9.73;;;17.50;91.40;;;;;;5029221;28;21083;-66
2023/08/15 01:33:39;;;;;;;16.03;9.10;;;17.60;91.10;;;;;;5029133;28;20292;-66
2023/08/15 01:36:14;;;;;;;14.90;9.10;;;17.60;90.90;;;;;;5002215;28;20275;-67
2023/08/15 01:38:42;;;;;;;;;;;17.60;90.40;;;;;;5025962;28;20283;-67
2023/08/15 01:41:11;;;;;;;12.87;8.23;;;17.60;90.80;;;;;;5028736;28;20035;-66
2023/08/15 01:43:39;;;;;;;16.77;9.37;;;17.60;90.20;;;;;;5026398;28;20291;-67
2023/08/15 01:46:06;;;;;;;13.03;9.33;;;17.50;90.00;;;;;;5026193;28;20295;-67
2023/08/15 01:48:31;;;;;;;13.70;9.40;;;17.50;90.30;;;;;;5026089;28;20517;-67
2023/08/15 01:50:57;;;;;;;16.13;9.67;;;17.50;90.60;;;;;;5023163;28;21055;-66
2023/08/15 01:53:23;;;;;;;15.37;9.10;;;17.40;90.80;;;;;;5000597;28;20049;-66
2023/08/15 01:55:48;;;;;;;12.53;8.97;;;17.40;90.90;;;;;;5010853;28;20040;-66
2023/08/15 01:58:14;;;;;;;13.37;9.43;;;17.30;90.90;;;;;;5027188;28;20128;-67
2023/08/15 02:00:40;;;;;;;13.10;9.50;;;17.30;91.30;;;;;;5028958;28;20036;-67
2023/08/15 02:03:06;;;;;;;14.00;9.50;;;17.20;91.20;;;;;;5022514;28;20041;-66
2023/08/15 02:05:32;;;;;;;11.63;8.23;;;17.20;91.10;;;;;;5011893;28;20629;-67
2023/08/15 02:07:57;;;;;;;13.33;8.17;;;17.10;91.20;;;;;;5025963;28;20037;-67
2023/08/15 02:10:23;;;;;;;13.40;8.20;;;17.10;91.30;;;;;;5018274;28;20881;-66
2023/08/15 02:12:49;;;;;;;12.60;8.53;;;17.10;91.50;;;;;;5028097;28;20037;-66
2023/08/15 02:15:15;;;;;;;11.57;8.50;;;17.10;91.60;;;;;;5009785;28;20060;-66
2023/08/15 02:17:40;;;;;;;14.20;9.23;;;17.10;91.60;;;;;;5027659;28;20056;-66
2023/08/15 02:20:06;;;;;;;13.13;8.43;;;17.10;92.10;;;;;;5009411;28;20041;-66
2023/08/15 02:22:32;;;;;;;12.27;7.37;;;17.10;91.90;;;;;;5027886;28;20051;-66
2023/08/15 02:24:58;;;;;;;12.87;8.10;;;17.00;91.90;;;;;;5012367;28;20283;-66
2023/08/15 02:27:23;;;;;;;12.70;7.90;;;17.00;92.00;;;;;;5012180;28;20075;-66
2023/08/15 02:29:51;;;;;;;10.37;7.83;;;17.00;92.00;;;;;;5027024;28;20485;-66
2023/08/15 02:32:20;;;;;;;11.27;7.97;;;17.00;92.10;;;;;;5006579;28;20485;-66
2023/08/15 02:34:46;;;;;;;17.47;8.97;;;17.00;92.20;;;;;;5017640;28;20426;-68
2023/08/15 02:37:11;;;;;;;9.47;7.53;;;17.00;92.20;;;;;;5017211;28;20375;-67
2023/08/15 02:39:37;;;;;;;13.90;8.83;;;17.10;92.50;;;;;;5008175;28;20033;-67
2023/08/15 02:42:03;;;;;;;12.17;8.97;;;17.00;92.70;;;;;;5027462;28;20653;-67
2023/08/15 02:44:29;;;;;;;15.70;8.93;;;17.10;92.90;;;;;;5011156;28;20429;-67
2023/08/15 02:46:54;;;;;;;11.67;9.13;;;17.10;93.10;;;;;;5024630;28;20164;-66
2023/08/15 02:49:20;;;;;;;14.23;8.90;;;17.10;93.30;;;;;;5015981;28;20045;-66
2023/08/15 02:51:46;;;;;;;11.63;8.63;;;17.20;93.50;;;;;;5020169;28;20131;-66
2023/08/15 02:54:11;;;;;;;13.33;9.57;;;17.30;93.60;;;;;;5027921;28;20045;-66
2023/08/15 02:56:37;;;;;;;12.73;10.60;;;17.30;93.50;;;;;;5001093;28;20051;-67
2023/08/15 02:59:03;;;;;;;14.23;8.70;;;17.30;93.70;;;;;;5027598;28;20465;-66
2023/08/15 03:01:29;;;;;;;10.73;8.40;;;17.40;93.60;;;;;;5027454;28;20041;-66
2023/08/15 03:03:54;;;;;;;12.30;8.60;;;17.40;93.60;;;;;;5020532;28;20059;-66
2023/08/15 03:06:20;;;;;;;11.60;9.03;;;17.40;93.60;;;;;;5026519;28;20036;-66
2023/08/15 03:08:47;;;;;;;13.00;8.83;;;17.50;93.60;;;;;;5019327;28;20063;-67
2023/08/15 03:11:13;;;;;;;14.57;8.73;;;17.50;93.60;;;;;;5009181;28;20071;-67
2023/08/15 03:13:38;;;;;;;14.30;9.07;;;17.50;93.60;;;;;;5026638;28;20291;-67
2023/08/15 03:16:04;;;;;;;12.77;8.63;;;17.60;94.30;;;;;;5019432;28;20077;-67
2023/08/15 03:18:30;;;;;;;13.23;8.43;;;17.60;94.60;;;;;;5036322;28;20040;-67
2023/08/15 03:21:00;;;;;;;15.40;9.23;;;17.60;94.50;;;;;;5026196;28;20045;-67
2023/08/15 03:23:26;;;;;;;14.33;8.70;;;17.70;94.30;;;;;;5030127;28;20067;-66
2023/08/15 03:26:00;;;;;;;10.30;7.73;;;17.70;94.40;;;;;;5030924;28;20272;-66
2023/08/15 03:28:26;;;;;;;13.00;8.80;;;17.70;94.30;;;;;;5024277;28;20933;-66
2023/08/15 03:30:52;;;;;;;11.53;8.07;;;17.80;94.30;;;;;;5022235;28;20306;-66
2023/08/15 03:33:18;;;;;;;14.23;7.80;;;17.80;94.40;;;;;;5019041;28;20284;-66
2023/08/15 03:35:48;;;;;;;14.23;8.40;;;17.80;94.40;;;;;;5005384;28;20283;-67
2023/08/15 03:38:18;;;;;;;14.13;7.57;;;17.80;94.30;;;;;;5019914;28;20123;-67
2023/08/15 03:40:45;;;;;;;10.70;7.13;;;17.80;94.10;;;;;;5022308;28;20391;-67
2023/08/15 03:43:11;;;;;;;12.23;7.90;;;17.90;94.00;;;;;;5029299;28;20303;-67
2023/08/15 03:45:38;;;;;;;10.90;7.40;;;17.90;94.00;;;;;;5033574;28;21000;-67
2023/08/15 03:48:07;;;;;;;13.40;6.83;;;17.90;93.70;;;;;;5033279;28;20040;-67
2023/08/15 03:50:38;;;;;;;9.63;6.57;;;17.90;93.50;;;;;;5034895;28;20283;-67
2023/08/15 03:53:04;;;;;;;8.90;5.97;;;17.80;93.40;;;;;;5030234;28;21002;-67
2023/08/15 03:55:31;;;;;;;9.33;6.70;;;17.80;93.10;;;;;;5031318;28;20369;-66
2023/08/15 03:57:57;;;;;;;9.53;6.40;;;17.70;93.10;;;;;;5014075;28;20283;-66
2023/08/15 04:00:24;;;;;;;8.37;6.50;;;17.60;93.00;;;;;;5031257;28;20299;-66
2023/08/15 04:02:49;;;;;;;11.67;7.33;;;17.50;93.00;;;;;;5029459;28;20280;-66
2023/08/15 04:05:16;;;;;;;10.30;6.20;;;17.40;92.90;;;;;;5028259;28;20291;-66
2023/08/15 04:07:41;;;;;;;11.17;7.10;;;17.40;92.90;;;;;;5017817;28;20111;-67
2023/08/15 04:10:08;;;;;;;7.47;5.70;;;17.30;92.90;;;;;;5030417;28;20295;-67
2023/08/15 04:12:34;;;;;;;13.17;6.80;;;17.20;92.90;;;;;;5029089;28;20052;-67
2023/08/15 04:15:00;;;;;;;11.57;6.63;;;17.10;92.90;;;;;;5025403;28;20288;-67
2023/08/15 04:17:26;;;;;;;10.90;6.43;;;17.00;93.00;;;;;;5027296;28;20817;-67
2023/08/15 04:19:52;;;;;;;13.40;6.57;;;17.00;93.10;;;;;;5026352;28;20069;-67
2023/08/15 04:22:18;;;;;;;11.97;6.57;;;16.90;93.50;;;;;;5023541;28;20299;-67
2023/08/15 04:24:44;;;;;;;8.33;5.50;;;16.90;93.80;;;;;;5025128;28;20291;-67
2023/08/15 04:27:10;;;;;;;10.60;5.50;;;16.90;93.60;;;;;;5029149;28;20362;-67
2023/08/15 04:29:36;;;;;;;14.47;7.63;;;16.80;93.40;;;;;;5013876;28;20485;-67
2023/08/15 04:32:02;;;;;;;11.20;5.63;;;16.70;93.50;;;;;;5028813;28;20052;-67
2023/08/15 04:34:28;;;;;;;9.47;5.70;;;16.70;93.50;;;;;;5024082;28;20041;-67
2023/08/15 04:36:54;;;;;;;8.10;4.57;;;16.60;93.30;;;;;;5010968;28;20617;-67
2023/08/15 04:39:24;;;;;;;9.27;4.30;;;16.60;93.20;;;;;;5023669;28;20303;-67
2023/08/15 04:41:50;;;;;;;10.13;4.80;;;16.50;93.20;;;;;;5012989;28;20729;-66
2023/08/15 04:44:16;;;;;;;9.13;4.30;;;16.50;93.10;;;;;;5025939;28;20292;-66
2023/08/15 04:46:41;;;;;;;8.43;4.23;;;16.50;93.20;;;;;;5025050;28;20291;-66
2023/08/15 04:49:07;;;;;;;5.63;3.73;;;16.40;93.10;;;;;;5025222;28;20037;-66
2023/08/15 04:51:33;;;;;;;10.20;4.17;;;16.40;93.30;;;;;;5024443;28;20041;-66
2023/08/15 04:53:58;;;;;;;9.07;4.27;;;16.40;93.30;;;;;;5006123;28;20037;-66
2023/08/15 04:56:24;;;;;;;6.17;3.87;;;16.40;93.30;;;;;;5023035;28;20444;-66
2023/08/15 04:58:50;;;;;;;8.17;4.47;;;16.40;93.20;;;;;;5025625;28;20047;-66
2023/08/15 05:01:16;;;;;;;9.63;4.27;;;16.40;93.30;;;;;;5026702;28;20127;-66
2023/08/15 05:03:42;;;;;;;9.43;4.83;;;16.30;93.30;;;;;;5023453;28;20044;-66
2023/08/15 05:06:07;;;;;;;11.97;5.13;;;16.40;93.50;;;;;;5027632;28;20037;-66
2023/08/15 05:08:33;;;;;;;10.20;5.03;;;16.40;93.90;;;;;;5003648;28;20287;-66
2023/08/15 05:11:00;;;;;;;10.50;5.27;;;16.40;94.30;;;;;;5018839;28;20148;-66
2023/08/15 05:13:26;;;;;;;12.33;6.10;;;16.50;94.70;;;;;;5012408;28;20072;-66
2023/08/15 05:15:52;;;;;;;11.50;5.17;;;16.50;94.90;;;;;;5008403;28;20300;-67
2023/08/15 05:18:19;;;;;;;12.17;4.70;;;16.60;94.70;;;;;;5028843;28;20287;-68
2023/08/15 05:20:49;;;;;;;7.73;4.60;;;16.60;94.70;;;;;;5026095;28;20310;-68
2023/08/15 05:23:15;;;;;;;12.13;6.07;;;16.60;94.40;;;;;;5023811;28;20288;-68
2023/08/15 05:25:43;;;;;;;11.80;4.90;;;16.60;94.50;;;;;;5020424;28;20288;-68
2023/08/15 05:28:09;;;;;;;11.00;4.97;;;16.70;94.60;;;;;;5002087;28;20294;-68
2023/08/15 05:30:35;;;;;;;10.97;4.83;;;16.70;94.70;;;;;;5015544;28;20303;-68
2023/08/15 05:33:01;;;;;;;11.07;4.67;;;16.70;94.70;;;;;;5005369;28;20298;-68
2023/08/15 05:35:27;;;;;;;12.30;4.60;;;16.70;94.80;;;;;;5002395;28;20076;-67
2023/08/15 05:37:56;;;;;;;11.40;4.20;;;16.70;95.30;;;;;;5019130;28;20104;-66
2023/08/15 05:40:22;;;;;;;10.63;4.50;;;16.80;95.50;;;;;;5001598;28;20072;-66
2023/08/15 05:42:48;;;;;;;8.57;4.00;;;16.90;95.90;;;;;;5010399;28;20276;-68
2023/08/15 05:45:15;;;;;;;8.83;4.73;;;17.00;96.20;;;;;;5018283;28;20919;-68
2023/08/15 05:47:40;;;;;;;12.70;4.00;;;17.10;96.30;;;;;;5018932;28;20029;-67
2023/08/15 05:50:07;;;;;;;10.83;4.60;;;17.30;96.50;;;;;;5018879;28;20299;-67
2023/08/15 05:52:33;;;;;;;11.40;4.27;;;17.30;96.70;;;;;;5009641;28;20045;-67
2023/08/15 05:54:59;;;;;;;13.27;5.00;;;17.40;97.60;;;;;;5023254;28;20779;-68
2023/08/15 05:57:25;;;;;;;12.47;3.87;;;17.50;97.70;;;;;;5024409;28;20349;-68
2023/08/15 05:59:51;;;;;;;13.60;4.27;;;17.60;97.80;;;;;;5027393;28;20041;-68
2023/08/15 06:02:18;;;;;;;12.00;3.63;;;17.70;98.00;;;;;;5023242;28;20280;-68
2023/08/15 06:04:44;;;;;;;14.60;3.90;;;17.80;97.70;;;;;;5021606;28;20314;-68
2023/08/15 06:07:12;;;;;;;9.47;3.90;;;17.90;97.80;;;;;;5007177;28;20291;-68
2023/08/15 06:09:38;;;;;;;12.03;4.00;;;17.90;97.50;;;;;;5012492;28;20182;-68
2023/08/15 06:12:04;;;;;;;10.20;3.50;;;17.90;98.20;;;;;;5018446;28;20810;-68
2023/08/15 06:14:31;;;;;;;15.37;4.30;;;18.00;98.90;;;;;;5026311;28;20667;-68
2023/08/15 06:16:57;;;;;;;15.63;4.40;;;18.10;98.90;;;;;;5024159;28;20341;-68
2023/08/15 06:19:23;;;;;;;11.83;3.70;;;18.20;99.00;;;;;;5010456;28;20307;-68
2023/08/15 06:21:48;;;;;;;14.00;3.40;;;18.30;99.10;;;;;;5003055;28;20037;-68
2023/08/15 06:24:14;;;;;;;14.90;3.47;;;18.40;98.70;;;;;;5008371;28;20037;-68
2023/08/15 06:26:40;;;;;;;11.73;4.20;;;18.40;98.40;;;;;;5008509;28;20151;-68
2023/08/15 06:29:06;;;;;;;13.60;3.60;;;18.60;98.50;;;;;;5023685;28;20800;-68
2023/08/15 06:31:33;;;;;;;15.03;3.93;;;18.70;98.70;;;;;;5020980;28;20045;-68
2023/08/15 06:33:59;;;;;;;14.47;3.77;;;19.00;98.70;;;;;;5022921;28;20087;-68
2023/08/15 06:36:25;;;;;;;12.87;3.60;;;19.40;98.20;;;;;;5014545;28;20076;-68
2023/08/15 06:38:51;;;;;;;11.10;3.60;;;20.20;96.70;;;;;;5026790;28;20760;-68
2023/08/15 06:41:17;;;;;;;14.33;3.93;;;21.00;92.10;;;;;;5022759;28;20120;-68
2023/08/15 06:43:44;;;;;;;11.77;3.33;;;21.60;86.80;;;;;;5021180;28;20101;-68
2023/08/15 06:46:13;;;;;;;13.37;3.30;;;21.90;84.70;;;;;;5001387;28;20424;-68
2023/08/15 06:48:39;;;;;;;10.00;3.40;;;21.90;83.60;;;;;;5027255;28;20680;-68
2023/08/15 06:51:05;;;;;;;10.87;3.20;;;22.00;83.20;;;;;;5014477;28;20123;-68
2023/08/15 06:53:31;;;;;;;11.73;3.57;;;22.40;83.00;;;;;;5014297;28;20047;-68
2023/08/15 06:55:57;;;;;;;7.10;3.00;;;22.60;80.50;;;;;;5030508;28;20033;-68
2023/08/15 06:58:24;;;;;;;13.57;3.50;;;22.50;79.30;;;;;;5014342;28;20397;-68
2023/08/15 07:00:50;;;;;;;12.50;3.77;;;21.90;80.00;;;;;;5024792;28;20099;-68
2023/08/15 07:03:16;;;;;;;9.53;3.27;;;21.40;82.20;;;;;;5028250;28;20045;-68
2023/08/15 07:05:43;;;;;;;10.53;2.97;;;21.00;83.80;;;;;;5031104;28;20045;-68
2023/08/15 07:08:09;;;;;;;7.67;2.50;;;20.70;85.10;;;;;;5017384;28;20036;-68
2023/08/15 07:10:35;;;;;;;9.07;2.77;;;20.50;86.10;;;;;;5013105;28;20071;-68
2023/08/15 07:13:01;;;;;;;7.83;2.30;;;20.50;87.60;;;;;;5029931;28;20120;-68
2023/08/15 07:15:28;;;;;;;7.00;2.60;;;20.40;87.00;;;;;;5030457;28;20446;-68
2023/08/15 07:17:53;;;;;;;12.33;3.17;;;20.30;86.70;;;;;;5011926;28;20114;-68
2023/08/15 07:20:19;;;;;;;11.37;2.27;;;20.30;87.10;;;;;;5014392;28;20044;-68
2023/08/15 07:22:45;;;;;;;8.27;2.37;;;20.20;86.70;;;;;;5024063;28;20041;-68
2023/08/15 07:25:12;;;;;;;7.83;2.10;;;20.20;86.30;;;;;;5022775;28;20059;-68
2023/08/15 07:27:38;;;;;;;6.20;2.50;;;20.20;86.10;;;;;;5024537;28;20044;-68
2023/08/15 07:30:05;;;;;;;10.50;2.13;;;20.30;85.60;;;;;;5031000;28;20056;-68
2023/08/15 07:32:33;;;;;;;8.57;2.00;;;20.30;85.20;;;;;;5017343;28;20128;-68
2023/08/15 07:35:00;;;;;;;11.00;3.00;;;20.30;85.00;;;;;;5028589;28;20044;-68
2023/08/15 07:37:26;;;;;;;7.23;2.20;;;20.40;85.80;;;;;;5032017;28;20497;-69
2023/08/15 07:40:08;;;;;;;11.10;3.00;;;20.40;85.80;;;;;;5027812;28;20041;-69
2023/08/15 07:42:34;;;;;;;7.10;2.23;;;20.50;85.20;;;;;;5023641;28;20103;-69
2023/08/15 07:45:00;;;;;;;7.47;2.70;;;20.50;84.60;;;;;;5031219;28;20379;-69
2023/08/15 07:47:26;;;;;;;8.03;1.87;;;20.50;85.10;;;;;;5018019;28;20041;-69
2023/08/15 07:50:14;;;;;;;9.87;2.30;;;20.70;85.20;;;;;;5038651;28;20101;-69
2023/08/15 07:52:41;;;;;;;7.90;2.10;;;20.80;84.50;;;;;;5021479;28;20039;-69
2023/08/15 07:55:08;;;;;;;7.67;1.77;;;20.90;83.90;;;;;;5026415;28;20052;-69
2023/08/15 07:57:33;;;;;;;9.23;2.40;;;21.00;83.00;;;;;;5037805;28;20489;-69
2023/08/15 07:59:59;;;;;;;7.00;2.17;;;21.20;82.70;;;;;;5030603;28;20124;-69
2023/08/15 08:02:24;;;;;;;7.37;2.23;;;21.20;82.30;;;;;;5035407;28;20515;-69
2023/08/15 08:04:51;;;;;;;6.87;1.90;;;21.20;80.80;;;;;;5026490;28;20041;-69
2023/08/15 08:07:16;;;;;;;6.87;1.73;;;21.20;80.90;;;;;;5028339;28;20048;-68
2023/08/15 08:09:42;;;;;;;5.33;1.60;;;21.30;80.90;;;;;;5027500;28;20049;-69
2023/08/15 08:12:08;;;;;;;8.40;2.00;;;21.30;80.10;;;;;;5033716;28;20686;-70
2023/08/15 08:14:34;;;;;;;8.93;2.80;;;21.20;78.90;;;;;;5028699;28;20334;-69
2023/08/15 08:17:00;;;;;;;7.07;2.27;;;21.10;77.90;;;;;;5010344;28;20354;-69
2023/08/15 08:19:26;;;;;;;6.33;2.47;;;21.10;79.80;;;;;;5015314;28;20037;-69
2023/08/15 08:21:52;;;;;;;7.10;2.20;;;21.10;78.90;;;;;;5035926;28;20571;-70
2023/08/15 08:24:18;;;;;;;6.00;1.80;;;21.10;79.40;;;;;;5014900;28;20041;-69
2023/08/15 08:26:44;;;;;;;8.03;1.90;;;21.20;79.70;;;;;;5035580;28;20100;-69
2023/08/15 08:29:11;;;;;;;6.80;2.00;;;21.40;79.50;;;;;;5026161;28;20045;-70
2023/08/15 08:31:39;;;;;;;5.10;1.60;;;21.40;78.40;;;;;;5027968;28;20051;-71
2023/08/15 08:34:15;;;;;;;6.50;2.17;;;21.50;78.50;;;;;;5031436;28;20040;-70
2023/08/15 08:36:41;;;;;;;4.50;2.30;;;21.60;78.00;;;;;;5030336;28;20064;-70
2023/08/15 08:39:07;;;;;;;7.73;2.80;;;21.70;78.30;;;;;;5030069;28;20089;-68
2023/08/15 08:41:36;;;;;;;7.00;2.20;;;21.80;78.30;;;;;;5027254;28;20590;-70
2023/08/15 08:44:03;;;;;;;7.13;2.37;;;21.90;76.90;;;;;;5019313;28;20032;-69
2023/08/15 08:46:29;;;;;;;6.53;1.90;;;21.90;76.20;;;;;;5013405;28;20033;-69
2023/08/15 08:48:58;;;;;;;11.07;3.07;;;22.00;76.20;;;;;;5014798;28;20032;-70
2023/08/15 08:51:25;;;;;;;8.97;2.60;;;22.00;75.70;;;;;;5011637;28;20039;-70
2023/08/15 08:53:52;;;;;;;9.27;3.03;;;22.20;76.10;;;;;;5013968;28;20620;-70
2023/08/15 08:56:18;;;;;;;6.30;2.70;;;22.20;74.30;;;;;;5035362;28;20040;-69
2023/08/15 08:58:49;;;;;;;12.63;3.07;;;22.10;73.70;;;;;;5012783;28;20029;-70
2023/08/15 09:01:15;;;;;;;5.43;1.40;;;21.90;74.30;;;;;;5029587;28;20046;-69
2023/08/15 09:03:42;;;;;;;9.57;2.70;;;21.70;72.80;;;;;;5027617;28;20461;-70
2023/08/15 09:06:08;;;;;;;5.97;1.67;;;21.60;74.20;;;;;;5014710;28;20045;-69
2023/08/15 09:08:34;;;;;;;3.87;0.90;;;21.70;74.20;;;;;;5014293;28;20040;-69
2023/08/15 09:11:00;;;;;;;6.50;1.80;;;22.10;74.40;;;;;;5008286;28;20056;-70
2023/08/15 09:13:26;;;;;;;6.63;1.80;;;22.40;73.60;;;;;;5024840;28;20121;-69
2023/08/15 09:15:56;;;;;;;4.03;1.60;;;22.60;71.80;;;;;;5027612;28;20053;-69
2023/08/15 09:18:22;;;;;;;6.10;2.20;;;22.70;72.20;;;;;;5029969;28;20167;-69
2023/08/15 09:20:49;;;;;;;7.37;1.43;;;22.80;72.80;;;;;;5013022;28;20051;-69
2023/08/15 09:23:16;;;;;;;4.27;1.30;;;23.00;72.40;;;;;;5026988;28;20034;-69
2023/08/15 09:25:42;;;;;;;4.23;0.93;;;23.30;71.40;;;;;;5023902;28;20037;-70
2023/08/15 09:28:08;;;;;;;4.37;0.90;;;23.30;69.20;;;;;;5014597;28;20446;-69
2023/08/15 09:30:34;;;;;;;4.40;1.10;;;23.10;69.10;;;;;;5030576;28;20129;-70
2023/08/15 09:33:04;;;;;;;3.53;1.13;;;22.90;68.10;;;;;;5011248;28;20041;-69
2023/08/15 09:35:32;;;;;;;7.67;1.20;;;22.70;69.70;;;;;;5018928;28;20053;-69
2023/08/15 09:38:05;;;;;;;5.23;1.07;;;22.40;69.10;;;;;;5015867;28;20401;-69
2023/08/15 09:40:31;;;;;;;6.20;1.20;;;22.40;70.70;;;;;;5013563;28;20041;-69
2023/08/15 09:42:57;;;;;;;5.63;1.20;;;22.40;68.80;;;;;;5026902;28;20033;-68
2023/08/15 09:45:24;;;;;;;2.67;0.80;;;22.50;68.80;;;;;;5024721;28;20047;-69
2023/08/15 09:47:50;;;;;;;3.90;1.00;;;22.60;67.70;;;;;;5011327;28;20540;-70
2023/08/15 09:50:17;;;;;;;3.60;1.30;;;22.50;68.80;;;;;;5009917;28;20041;-69
2023/08/15 09:52:45;;;;;;;6.73;1.20;;;22.50;69.00;;;;;;5022102;28;20045;-70
2023/08/15 09:55:12;;;;;;;5.73;0.90;;;22.50;68.20;;;;;;5025388;28;20048;-69
2023/08/15 09:57:39;;;;;;;3.37;1.30;;;22.50;68.10;;;;;;5026228;28;20045;-69
2023/08/15 10:00:08;;;;;;;3.97;0.83;;;22.70;68.30;;;;;;5026721;28;20044;-69
2023/08/15 10:02:43;;;;;;;4.33;1.13;;;22.90;67.10;;;;;;5026246;28;20036;-67
2023/08/15 10:05:11;;;;;;;3.55;1.23;;;23.20;67.70;;;;;;5028762;28;20045;-67
2023/08/15 10:07:37;;;;;;;4.07;1.10;;;23.40;66.20;;;;;;5010651;28;20044;-67
2023/08/15 10:10:04;;;;;;;4.33;1.10;;;23.40;65.90;;;;;;5009821;28;20106;-67
2023/08/15 10:12:32;;;;;;;3.33;1.00;;;23.50;65.20;;;;;;5027433;28;20045;-67
2023/08/15 10:14:58;;;;;;;3.50;1.20;;;23.60;66.20;;;;;;5026936;28;20398;-67
2023/08/15 10:17:26;;;;;;;3.57;0.87;;;23.90;65.70;;;;;;5021525;28;20052;-67
2023/08/15 10:19:54;;;;;;;2.03;0.60;;;24.00;63.70;;;;;;5022465;28;20041;-68
2023/08/15 10:22:19;;;;;;;5.53;1.37;;;24.00;64.00;;;;;;5025043;28;20037;-68
2023/08/15 10:24:46;;;;;;;2.60;1.00;;;24.10;62.90;;;;;;5022582;28;20044;-68
2023/08/15 10:27:15;;;;;;;6.17;1.33;;;24.20;63.40;;;;;;5011162;28;20158;-67
2023/08/15 10:29:56;;;;;;;4.07;1.10;;;24.10;63.90;;;;;;5025785;28;20061;-68
2023/08/15 10:32:30;;;;;;;3.97;1.00;;;24.10;63.80;;;;;;5023861;28;20053;-68
2023/08/15 10:35:02;;;;;;;2.70;1.17;;;24.10;62.60;;;;;;5024414;28;20048;-68
2023/08/15 10:37:31;;;;;;;6.37;1.20;;;24.10;63.60;;;;;;5022874;28;20410;-68
2023/08/15 10:40:07;;;;;;;4.37;1.20;;;24.10;63.80;;;;;;5023430;28;20045;-68
2023/08/15 10:43:02;;;;;;;3.57;0.80;;;24.10;62.60;;;;;;5017903;28;20146;-68
2023/08/15 10:45:31;;;;;;;6.03;1.17;;;24.10;63.20;;;;;;5000877;28;20048;-68
2023/08/15 10:47:59;;;;;;;2.80;0.87;;;24.10;63.70;;;;;;5027149;28;20395;-68
2023/08/15 10:50:25;;;;;;;5.03;1.10;;;24.10;63.50;;;;;;5020944;28;20045;-68
2023/08/15 10:53:17;;;;;;;5.17;1.27;;;24.00;64.00;;;;;;5020996;28;20055;-68
2023/08/15 10:55:43;;;;;;;2.50;0.70;;;24.10;63.20;;;;;;5032530;28;20049;-68
2023/08/15 10:58:10;;;;;;;5.50;1.13;;;24.30;63.90;;;;;;5013213;28;20087;-68
2023/08/15 11:00:39;;;;;;;4.07;1.37;;;24.60;64.00;;;;;;5011568;28;20112;-68
2023/08/15 11:03:06;;;;;;;5.30;0.90;;;24.90;62.90;;;;;;5028443;28;20053;-68
2023/08/15 11:05:32;;;;;;;3.10;1.13;;;24.90;61.90;;;;;;5013669;28;20489;-68
2023/08/15 11:08:18;;;;;;;4.23;0.90;;;25.10;61.90;;;;;;5029347;28;20041;-68
2023/08/15 11:10:49;;;;;;;5.33;1.03;;;25.30;61.10;;;;;;5025620;28;20044;-68
2023/08/15 11:13:16;;;;;;;4.07;1.00;;;25.50;61.10;;;;;;5007439;28;20534;-68
2023/08/15 11:15:43;;;;;;;3.10;0.97;;;25.70;60.20;;;;;;5024838;28;20111;-68
2023/08/15 11:18:09;;;;;;;5.77;1.20;;;25.70;60.00;;;;;;5027710;28;20041;-68
2023/08/15 11:20:35;;;;;;;3.77;1.30;;;25.90;61.50;;;;;;5024490;28;20045;-68
2023/08/15 11:23:01;;;;;;;4.67;0.97;;;26.00;60.40;;;;;;5029936;28;20048;-68
2023/08/15 11:25:27;;;;;;;4.40;1.07;;;26.10;60.60;;;;;;5030032;28;20033;-68
2023/08/15 11:27:53;;;;;;;2.93;1.07;;;26.00;58.60;;;;;;5012093;28;20097;-68
2023/08/15 11:30:19;;;;;;;2.83;1.00;;;25.80;59.10;;;;;;5011807;28;20076;-68
2023/08/15 11:32:45;;;;;;;4.57;1.00;;;25.40;58.60;;;;;;5029095;28;20051;-68
2023/08/15 11:35:11;;;;;;;5.07;1.50;;;25.10;58.40;;;;;;5028920;28;20057;-67
2023/08/15 11:37:37;;;;;;;3.67;1.03;;;24.60;59.00;;;;;;5031370;28;20048;-68
2023/08/15 11:40:04;;;;;;;3.63;1.30;;;24.30;61.00;;;;;;5011530;28;20049;-68
2023/08/15 11:42:32;;;;;;;4.00;1.30;;;24.40;62.20;;;;;;5025569;28;20033;-68
2023/08/15 11:45:18;;;;;;;4.33;1.20;;;24.60;62.30;;;;;;5010691;28;20044;-68
2023/08/15 11:47:57;;;;;;;6.57;1.53;;;24.60;60.90;;;;;;5033364;28;20083;-69
2023/08/15 11:50:25;;;;;;;9.60;1.80;;;24.40;60.70;;;;;;5014570;28;20128;-69
2023/08/15 11:52:51;;;;;;;3.83;1.60;;;24.30;62.10;;;;;;5032834;28;20106;-69
2023/08/15 11:55:18;;;;;;;3.47;1.30;;;24.30;62.20;;;;;;5031275;28;20493;-69
2023/08/15 11:57:44;;;;;;;4.17;1.23;;;24.30;61.50;;;;;;5034033;28;20058;-68
2023/08/15 12:00:11;;;;;;;6.10;2.00;;;24.30;61.90;;;;;;5030990;28;20051;-69
2023/08/15 12:02:43;;;;;;;7.37;1.60;;;24.20;61.70;;;;;;5011619;28;20040;-69
2023/08/15 12:05:19;;;;;;;4.30;1.70;;;24.10;62.50;;;;;;5034124;28;20069;-68
2023/08/15 12:07:49;;;;;;;2.97;1.30;;;24.20;63.20;;;;;;5014694;28;20136;-68
2023/08/15 12:10:16;;;;;;;4.90;1.83;;;24.40;63.20;;;;;;5015637;28;20057;-68
2023/08/15 12:12:44;;;;;;;7.60;2.30;;;24.30;61.90;;;;;;5021757;28;20621;-68
2023/08/15 12:15:13;;;;;;;6.53;2.00;;;24.10;62.50;;;;;;5025709;28;20089;-69
2023/08/15 12:17:39;;;;;;;5.27;1.40;;;24.00;62.90;;;;;;5027366;28;20472;-69
2023/08/15 12:20:11;;;;;;;3.27;1.30;;;24.00;62.50;;;;;;5030324;28;20033;-69
2023/08/15 12:22:41;;;;;;;7.23;1.97;;;24.00;63.40;;;;;;5026608;28;20072;-69
2023/08/15 12:25:08;;;;;;;6.57;1.87;;;24.10;63.70;;;;;;5007567;28;20042;-68
2023/08/15 12:27:37;;;;;;;10.60;2.37;;;24.30;63.00;;;;;;5027650;28;20041;-69
2023/08/15 12:30:04;;;;;;;3.97;1.57;;;24.30;62.20;;;;;;5024821;28;20049;-68
2023/08/15 12:32:30;;;;;;;4.20;1.60;;;24.40;62.90;;;;;;5024780;28;20510;-69
2023/08/15 12:34:56;;;;;;;7.13;2.10;;;24.50;62.20;;;;;;5011517;28;20052;-69
2023/08/15 12:37:22;;;;;;;5.43;1.50;;;24.60;61.10;;;;;;5014108;28;20065;-70
2023/08/15 12:39:48;;;;;;;5.67;2.70;;;24.60;61.30;;;;;;5029794;28;20413;-69
2023/08/15 12:42:14;;;;;;;4.03;2.07;;;24.60;61.60;;;;;;5013020;28;20541;-69
2023/08/15 12:44:42;;;;;;;4.60;2.10;;;24.80;62.40;;;;;;5013876;28;20768;-69